Time,TemperatureF,DewpointF,PressureIn,WindDirection,WindDirectionDegrees,WindSpeedMPH,WindSpeedGustMPH,Humidity,HourlyPrecipIn,Conditions,Clouds,dailyrainin,SoftwareType,DateUTC
2013-09-02 00:05:00,-999.0,-99.9,-100.00,SSE,151,3.0,3.0,-999,0.00,,,0.26,,2013-09-02 04:05:00,
2013-09-02 00:14:00,-999.0,-99.9,-100.00,SSE,151,3.0,3.0,-999,0.00,,,0.26,,2013-09-02 04:14:00,
2013-09-02 00:25:00,-999.0,-99.9,-100.00,SSE,151,3.0,3.0,-999,0.00,,,0.26,,2013-09-02 04:25:00,
2013-09-02 00:30:00,-999.0,-99.9,-100.00,ESE,119,5.0,5.0,-999,0.00,,,0.26,,2013-09-02 04:30:00,
2013-09-02 00:54:00,-999.0,-99.9,-100.00,ESE,119,5.0,5.0,-999,0.00,,,0.26,,2013-09-02 04:54:00,
2013-09-02 01:04:00,-999.0,-99.9,-100.00,ESE,119,5.0,5.0,-999,0.00,,,0.26,,2013-09-02 05:04:00,
2013-09-02 01:13:00,-999.0,-99.9,-100.00,ESE,119,5.0,5.0,-999,0.00,,,0.26,,2013-09-02 05:13:00,
2013-09-02 01:23:00,-999.0,-99.9,-100.00,ESE,119,5.0,5.0,-999,0.00,,,0.26,,2013-09-02 05:23:00,
2013-09-02 01:30:00,-999.0,-99.9,-100.00,South,172,5.0,5.0,-999,0.00,,,0.26,,2013-09-02 05:30:00,
2013-09-02 01:52:00,-999.0,-99.9,-100.00,South,172,5.0,5.0,-999,0.00,,,0.26,,2013-09-02 05:52:00,
2013-09-02 02:03:00,-999.0,-99.9,-100.00,South,172,5.0,5.0,-999,0.00,,,0.26,,2013-09-02 06:03:00,
2013-09-02 02:12:00,-999.0,-99.9,-100.00,South,172,5.0,5.0,-999,0.00,,,0.26,,2013-09-02 06:12:00,
2013-09-02 02:22:00,-999.0,-99.9,-100.00,South,172,5.0,5.0,-999,0.00,,,0.26,,2013-09-02 06:22:00,
2013-09-02 02:30:00,-999.0,-99.9,-100.00,SSW,204,4.0,4.0,-999,0.00,,,0.26,,2013-09-02 06:30:00,
2013-09-02 02:52:00,-999.0,-99.9,-100.00,SSW,204,4.0,4.0,-999,0.00,,,0.26,,2013-09-02 06:52:00,
2013-09-02 03:02:00,-999.0,-99.9,-100.00,SSW,204,4.0,4.0,-999,0.00,,,0.26,,2013-09-02 07:02:00,
2013-09-02 03:11:00,-999.0,-99.9,-100.00,SSW,204,4.0,4.0,-999,0.00,,,0.26,,2013-09-02 07:11:00,
2013-09-02 03:22:00,-999.0,-99.9,-100.00,SSW,204,4.0,4.0,-999,0.00,,,0.26,,2013-09-02 07:22:00,
2013-09-02 03:30:00,-999.0,-99.9,-100.00,West,260,3.0,3.0,-999,0.00,,,0.26,,2013-09-02 07:30:00,
2013-09-02 03:53:00,-999.0,-99.9,-100.00,West,260,3.0,3.0,-999,0.00,,,0.26,,2013-09-02 07:53:00,
2013-09-02 04:02:00,-999.0,-99.9,-100.00,West,260,3.0,3.0,-999,0.00,,,0.26,,2013-09-02 08:02:00,
2013-09-02 04:11:00,-999.0,-99.9,-100.00,West,260,3.0,3.0,-999,0.00,,,0.26,,2013-09-02 08:11:00,
2013-09-02 04:22:00,-999.0,-99.9,-100.00,West,260,3.0,3.0,-999,0.00,,,0.26,,2013-09-02 08:22:00,
2013-09-02 04:30:00,-999.0,-99.9,-100.00,SSE,156,1.0,1.0,-999,0.00,,,0.02,,2013-09-02 08:30:00,
2013-09-02 04:52:00,-999.0,-99.9,-100.00,SSE,156,1.0,1.0,-999,0.00,,,0.02,,2013-09-02 08:52:00,
2013-09-02 05:01:00,-999.0,-99.9,-100.00,SSE,156,1.0,1.0,-999,0.00,,,0.02,,2013-09-02 09:01:00,
2013-09-02 05:12:00,-999.0,-99.9,-100.00,SSE,156,1.0,1.0,-999,0.00,,,0.02,,2013-09-02 09:12:00,
2013-09-02 05:22:00,-999.0,-99.9,-100.00,SSE,156,1.0,1.0,-999,0.00,,,0.02,,2013-09-02 09:22:00,
2013-09-02 05:30:00,-999.0,-99.9,-100.00,SSW,201,2.0,2.0,-999,0.00,,,0.02,,2013-09-02 09:30:00,
2013-09-02 05:54:00,-999.0,-99.9,-100.00,SSW,201,2.0,2.0,-999,0.00,,,0.02,,2013-09-02 09:54:00,
2013-09-02 06:03:00,-999.0,-99.9,-100.00,SSW,201,2.0,2.0,-999,0.00,,,0.02,,2013-09-02 10:03:00,
2013-09-02 06:13:00,-999.0,-99.9,-100.00,SSW,201,2.0,2.0,-999,0.00,,,0.02,,2013-09-02 10:13:00,
2013-09-02 06:23:00,-999.0,-99.9,-100.00,SSW,201,2.0,2.0,-999,0.00,,,0.02,,2013-09-02 10:23:00,
2013-09-02 06:30:00,-999.0,-99.9,-100.00,North,358,3.0,3.0,-999,0.00,,,0.02,,2013-09-02 10:30:00,
2013-09-02 06:53:00,-999.0,-99.9,-100.00,North,358,3.0,3.0,-999,0.00,,,0.02,,2013-09-02 10:53:00,
2013-09-02 07:03:00,-999.0,-99.9,-100.00,North,358,3.0,3.0,-999,0.00,,,0.02,,2013-09-02 11:03:00,
2013-09-02 07:12:00,-999.0,-99.9,-100.00,North,358,3.0,3.0,-999,0.00,,,0.02,,2013-09-02 11:12:00,
2013-09-02 07:22:00,-999.0,-99.9,-100.00,North,358,3.0,3.0,-999,0.00,,,0.02,,2013-09-02 11:22:00,
2013-09-02 07:30:00,-999.0,-99.9,-100.00,ESE,103,2.0,2.0,-999,0.00,,,0.02,,2013-09-02 11:30:00,
2013-09-02 07:52:00,-999.0,-99.9,-100.00,ESE,103,2.0,2.0,-999,0.00,,,0.02,,2013-09-02 11:52:00,
2013-09-02 08:02:00,-999.0,-99.9,-100.00,ESE,103,2.0,2.0,-999,0.00,,,0.02,,2013-09-02 12:02:00,
2013-09-02 08:12:00,-999.0,-99.9,-100.00,ESE,103,2.0,2.0,-999,0.00,,,0.02,,2013-09-02 12:12:00,
2013-09-02 08:22:00,-999.0,-99.9,-100.00,ESE,103,2.0,2.0,-999,0.00,,,0.02,,2013-09-02 12:22:00,
2013-09-02 08:30:00,-999.0,-99.9,-100.00,SE,141,3.0,3.0,-999,0.00,,,0.02,,2013-09-02 12:30:00,
2013-09-02 08:52:00,-999.0,-99.9,-100.00,SE,141,3.0,3.0,-999,0.00,,,0.02,,2013-09-02 12:52:00,
2013-09-02 09:02:00,-999.0,-99.9,-100.00,SE,141,3.0,3.0,-999,0.00,,,0.02,,2013-09-02 13:02:00,
2013-09-02 09:11:00,-999.0,-99.9,-100.00,SE,141,3.0,3.0,-999,0.00,,,0.02,,2013-09-02 13:11:00,
2013-09-02 09:22:00,-999.0,-99.9,-100.00,SE,141,3.0,3.0,-999,0.00,,,0.02,,2013-09-02 13:22:00,
2013-09-02 09:30:00,-999.0,-99.9,-100.00,North,359,2.0,3.0,-999,0.00,,,0.02,,2013-09-02 13:30:00,
2013-09-02 09:53:00,-999.0,-99.9,-100.00,North,359,2.0,3.0,-999,0.00,,,0.02,,2013-09-02 13:53:00,
2013-09-02 10:02:00,-999.0,-99.9,-100.00,North,359,2.0,3.0,-999,0.00,,,0.02,,2013-09-02 14:02:00,
2013-09-02 10:11:00,-999.0,-99.9,-100.00,North,359,2.0,3.0,-999,0.00,,,0.02,,2013-09-02 14:11:00,
2013-09-02 10:22:00,-999.0,-99.9,-100.00,North,359,2.0,3.0,-999,0.00,,,0.02,,2013-09-02 14:22:00,
2013-09-02 10:30:00,-999.0,-99.9,-100.00,East,85,3.0,3.0,-999,0.00,,,0.02,,2013-09-02 14:30:00,
2013-09-02 10:52:00,-999.0,-99.9,-100.00,East,85,3.0,3.0,-999,0.00,,,0.02,,2013-09-02 14:52:00,
2013-09-02 11:02:00,-999.0,-99.9,-100.00,East,85,3.0,3.0,-999,0.00,,,0.02,,2013-09-02 15:02:00,
2013-09-02 11:12:00,-999.0,-99.9,-100.00,East,85,3.0,3.0,-999,0.00,,,0.02,,2013-09-02 15:12:00,
2013-09-02 11:23:00,-999.0,-99.9,-100.00,East,85,3.0,3.0,-999,0.00,,,0.02,,2013-09-02 15:23:00,
2013-09-02 11:30:00,-999.0,-99.9,-100.00,East,92,3.0,3.0,-999,0.00,,,0.02,,2013-09-02 15:30:00,
2013-09-02 11:55:00,-999.0,-99.9,-100.00,East,92,3.0,3.0,-999,0.00,,,0.02,,2013-09-02 15:55:00,
2013-09-02 12:04:00,-999.0,-99.9,-100.00,East,92,3.0,3.0,-999,0.00,,,0.02,,2013-09-02 16:04:00,
2013-09-02 12:15:00,-999.0,-99.9,-100.00,East,92,3.0,3.0,-999,0.00,,,0.02,,2013-09-02 16:15:00,
2013-09-02 12:24:00,-999.0,-99.9,-100.00,East,92,3.0,3.0,-999,0.00,,,0.02,,2013-09-02 16:24:00,
2013-09-02 12:30:00,-999.0,-99.9,-100.00,East,89,3.0,4.0,-999,0.00,,,0.02,,2013-09-02 16:30:00,
2013-09-02 12:53:00,-999.0,-99.9,-100.00,East,89,3.0,4.0,-999,0.00,,,0.02,,2013-09-02 16:53:00,
2013-09-02 13:03:00,-999.0,-99.9,-100.00,East,89,3.0,4.0,-999,0.00,,,0.02,,2013-09-02 17:03:00,
2013-09-02 13:13:00,-999.0,-99.9,-100.00,East,89,3.0,4.0,-999,0.00,,,0.02,,2013-09-02 17:13:00,
2013-09-02 13:24:00,-999.0,-99.9,-100.00,East,89,3.0,4.0,-999,0.00,,,0.02,,2013-09-02 17:24:00,
2013-09-02 13:30:00,-999.0,-99.9,-100.00,SE,131,6.0,6.0,-999,0.04,,,0.06,,2013-09-02 17:30:00,
2013-09-02 13:52:00,-999.0,-99.9,-100.00,SE,131,6.0,6.0,-999,0.04,,,0.06,,2013-09-02 17:52:00,
2013-09-02 14:03:00,-999.0,-99.9,-100.00,SE,131,6.0,6.0,-999,0.04,,,0.06,,2013-09-02 18:03:00,
2013-09-02 14:13:00,-999.0,-99.9,-100.00,SE,131,6.0,6.0,-999,0.04,,,0.06,,2013-09-02 18:13:00,
2013-09-02 14:22:00,-999.0,-99.9,-100.00,SE,131,6.0,6.0,-999,0.04,,,0.06,,2013-09-02 18:22:00,
2013-09-02 14:30:00,-999.0,-99.9,-100.00,ENE,70,2.0,2.0,-999,0.01,,,0.07,,2013-09-02 18:30:00,
2013-09-02 14:52:00,-999.0,-99.9,-100.00,ENE,70,2.0,2.0,-999,0.01,,,0.07,,2013-09-02 18:52:00,
2013-09-02 15:02:00,-999.0,-99.9,-100.00,ENE,70,2.0,2.0,-999,0.01,,,0.07,,2013-09-02 19:02:00,
2013-09-02 15:12:00,-999.0,-99.9,-100.00,ENE,70,2.0,2.0,-999,0.01,,,0.07,,2013-09-02 19:12:00,
2013-09-02 15:22:00,-999.0,-99.9,-100.00,ENE,70,2.0,2.0,-999,0.01,,,0.07,,2013-09-02 19:22:00,
2013-09-02 15:30:00,-999.0,-99.9,-100.00,SW,221,5.0,5.0,-999,0.11,,,0.18,,2013-09-02 19:30:00,
2013-09-02 15:52:00,-999.0,-99.9,-100.00,SW,221,5.0,5.0,-999,0.11,,,0.18,,2013-09-02 19:52:00,
2013-09-02 16:03:00,-999.0,-99.9,-100.00,SW,221,5.0,5.0,-999,0.11,,,0.18,,2013-09-02 20:03:00,
2013-09-02 16:12:00,-999.0,-99.9,-100.00,SW,221,5.0,5.0,-999,0.11,,,0.18,,2013-09-02 20:12:00,
2013-09-02 16:22:00,-999.0,-99.9,-100.00,SW,221,5.0,5.0,-999,0.11,,,0.18,,2013-09-02 20:22:00,
2013-09-02 16:30:00,-999.0,-99.9,-100.00,SW,230,6.0,6.0,-999,0.00,,,0.18,,2013-09-02 20:30:00,
2013-09-02 16:52:00,-999.0,-99.9,-100.00,SW,230,6.0,6.0,-999,0.00,,,0.18,,2013-09-02 20:52:00,
2013-09-02 17:02:00,-999.0,-99.9,-100.00,SW,230,6.0,6.0,-999,0.00,,,0.18,,2013-09-02 21:02:00,
2013-09-02 17:12:00,-999.0,-99.9,-100.00,SW,230,6.0,6.0,-999,0.00,,,0.18,,2013-09-02 21:12:00,
2013-09-02 17:23:00,-999.0,-99.9,-100.00,SW,230,6.0,6.0,-999,0.00,,,0.18,,2013-09-02 21:23:00,
2013-09-02 17:30:00,-999.0,-99.9,-100.00,ESE,118,3.0,3.0,-999,0.00,,,0.17,,2013-09-02 21:30:00,
2013-09-02 17:55:00,-999.0,-99.9,-100.00,ESE,118,3.0,3.0,-999,0.00,,,0.17,,2013-09-02 21:55:00,
2013-09-02 18:04:00,-999.0,-99.9,-100.00,ESE,118,3.0,3.0,-999,0.00,,,0.17,,2013-09-02 22:04:00,
2013-09-02 18:13:00,-999.0,-99.9,-100.00,ESE,118,3.0,3.0,-999,0.00,,,0.17,,2013-09-02 22:13:00,
2013-09-02 18:24:00,-999.0,-99.9,-100.00,ESE,118,3.0,3.0,-999,0.00,,,0.17,,2013-09-02 22:24:00,
2013-09-02 19:30:00,-999.0,-99.9,-100.00,South,178,5.0,5.0,-999,0.00,,,0.16,,2013-09-02 23:30:00,
2013-09-02 19:53:00,-999.0,-99.9,-100.00,South,178,5.0,5.0,-999,0.00,,,0.16,,2013-09-02 23:53:00,
2013-09-02 20:02:00,-999.0,-99.9,-100.00,South,178,5.0,5.0,-999,0.00,,,0.16,,2013-09-03 00:02:00,
2013-09-02 20:12:00,-999.0,-99.9,-100.00,South,178,5.0,5.0,-999,0.00,,,0.16,,2013-09-03 00:12:00,
2013-09-02 20:22:00,-999.0,-99.9,-100.00,South,178,5.0,5.0,-999,0.00,,,0.16,,2013-09-03 00:22:00,
2013-09-02 20:30:00,-999.0,-99.9,-100.00,SSW,205,9.0,10.0,-999,0.00,,,0.16,,2013-09-03 00:30:00,
2013-09-02 20:52:00,-999.0,-99.9,-100.00,SSW,205,9.0,10.0,-999,0.00,,,0.16,,2013-09-03 00:52:00,
2013-09-02 21:02:00,-999.0,-99.9,-100.00,SSW,205,9.0,10.0,-999,0.00,,,0.16,,2013-09-03 01:02:00,
2013-09-02 21:11:00,-999.0,-99.9,-100.00,SSW,205,9.0,10.0,-999,0.00,,,0.16,,2013-09-03 01:11:00,
2013-09-02 21:22:00,-999.0,-99.9,-100.00,SSW,205,9.0,10.0,-999,0.00,,,0.16,,2013-09-03 01:22:00,
2013-09-02 21:30:00,-999.0,-99.9,-100.00,SSW,199,1.0,1.0,-999,0.00,,,0.16,,2013-09-03 01:30:00,
2013-09-02 21:52:00,-999.0,-99.9,-100.00,SSW,199,1.0,1.0,-999,0.00,,,0.16,,2013-09-03 01:52:00,
2013-09-02 22:02:00,-999.0,-99.9,-100.00,SSW,199,1.0,1.0,-999,0.00,,,0.16,,2013-09-03 02:02:00,
2013-09-02 22:12:00,-999.0,-99.9,-100.00,SSW,199,1.0,1.0,-999,0.00,,,0.16,,2013-09-03 02:12:00,
2013-09-02 22:22:00,-999.0,-99.9,-100.00,SSW,199,1.0,1.0,-999,0.00,,,0.16,,2013-09-03 02:22:00,
2013-09-02 22:30:00,-999.0,-99.9,-100.00,SSE,159,1.0,1.0,-999,0.00,,,0.16,,2013-09-03 02:30:00,
2013-09-02 22:52:00,-999.0,-99.9,-100.00,SSE,159,1.0,1.0,-999,0.00,,,0.16,,2013-09-03 02:52:00,
2013-09-02 23:02:00,-999.0,-99.9,-100.00,SSE,159,1.0,1.0,-999,0.00,,,0.16,,2013-09-03 03:02:00,
2013-09-02 23:11:00,-999.0,-99.9,-100.00,SSE,159,1.0,1.0,-999,0.00,,,0.16,,2013-09-03 03:11:00,
2013-09-02 23:23:00,-999.0,-99.9,-100.00,SSE,159,1.0,1.0,-999,0.00,,,0.16,,2013-09-03 03:23:00,
2013-09-02 23:30:00,-999.0,-99.9,-100.00,SSE,167,1.0,1.0,-999,0.00,,,0.16,,2013-09-03 03:30:00,
2013-09-02 23:55:00,-999.0,-99.9,-100.00,SSE,167,1.0,1.0,-999,0.00,,,0.16,,2013-09-03 03:55:00,